Terminal Aerodrome Forecast
Issued by NWS Northern Indiana

Home | Current Version | Previous Version | Text Only | Print | Product List | Glossary On
Versions: 1 2 3 4 5 6 7 8 9 10 11 12
000
FTUS43 KIWX 222300
TAFFWA
TAF
KFWA 222326Z 2300/2324 22011KT P6SM SCT100 BKN250
     FM230900 32010KT P6SM OVC025
     FM231500 32015KT P6SM SCT025=

USA.gov is the U.S. government's official web portal to all federal, state and local government web resources and services.